Time;durP1;ratioP1;P1;durP2;ratioP2;P2;SDS_P1;SDS_P2;PMS_P1;PMS_P2;Temp;Humidity;BMP_temperature;BMP_pressure;BME280_temperature;BME280_humidity;BME280_pressure;Samples;Min_cycle;Max_cycle;Signal;HPM_P1;HPM_P2
2022/03/07 00:00:49;;;;;;;;;43.00;40.00;;;;;;;;5020479;28;8799;-79
2022/03/07 00:03:17;;;;;;;;;46.33;42.00;;;;;;;;5020427;28;8920;-78
2022/03/07 00:05:44;;;;;;;;;53.67;46.67;;;;;;;;5021429;28;8882;-78
2022/03/07 00:08:12;;;;;;;;;50.67;45.67;;;;;;;;5021893;28;8876;-78
2022/03/07 00:10:41;;;;;;;;;53.33;43.33;;;;;;;;5020255;28;8880;-79
2022/03/07 00:13:08;;;;;;;;;50.33;42.00;;;;;;;;5021251;28;8858;-79
2022/03/07 00:15:36;;;;;;;;;53.67;44.00;;;;;;;;5019304;28;8897;-79
2022/03/07 00:18:03;;;;;;;;;41.67;40.33;;;;;;;;5021863;28;8897;-78
2022/03/07 00:20:31;;;;;;;;;47.00;43.67;;;;;;;;5020982;28;8834;-78
2022/03/07 00:22:58;;;;;;;;;46.67;39.67;;;;;;;;5020515;28;8890;-78
2022/03/07 00:25:26;;;;;;;;;44.33;40.00;;;;;;;;5020715;28;8862;-78
2022/03/07 00:27:55;;;;;;;;;47.33;40.00;;;;;;;;5019502;28;8870;-78
2022/03/07 00:30:22;;;;;;;;;33.00;33.00;;;;;;;;5019637;28;8863;-78
2022/03/07 00:32:50;;;;;;;;;41.33;35.33;;;;;;;;5001291;28;9698;-77
2022/03/07 00:35:17;;;;;;;;;50.33;40.67;;;;;;;;5020680;28;8862;-78
2022/03/07 00:37:45;;;;;;;;;40.67;40.00;;;;;;;;5020066;28;8874;-78
2022/03/07 00:40:12;;;;;;;;;53.00;40.33;;;;;;;;5019124;28;10106;-78
2022/03/07 00:42:40;;;;;;;;;45.00;39.67;;;;;;;;5020538;28;8838;-79
2022/03/07 00:45:11;;;;;;;;;48.33;39.00;;;;;;;;5019198;28;8870;-79
2022/03/07 00:47:38;;;;;;;;;42.33;40.33;;;;;;;;5021105;28;8897;-79
2022/03/07 00:50:06;;;;;;;;;36.67;34.67;;;;;;;;5020713;28;8880;-79
2022/03/07 00:52:35;;;;;;;;;49.67;42.00;;;;;;;;5020652;28;8858;-79
2022/03/07 00:55:02;;;;;;;;;36.33;31.00;;;;;;;;5019611;28;8862;-78
2022/03/07 00:57:30;;;;;;;;;49.00;39.33;;;;;;;;5019223;28;8892;-78
2022/03/07 00:59:57;;;;;;;;;45.00;35.00;;;;;;;;5019209;28;9012;-78
2022/03/07 01:02:26;;;;;;;;;41.67;37.67;;;;;;;;5022021;28;8795;-78
2022/03/07 01:04:55;;;;;;;;;44.67;39.00;;;;;;;;5023746;28;9428;-78
2022/03/07 01:07:22;;;;;;;;;40.67;36.00;;;;;;;;5020522;28;8886;-78
2022/03/07 01:09:49;;;;;;;;;38.33;38.33;;;;;;;;5023186;28;8892;-78
2022/03/07 01:12:17;;;;;;;;;41.00;40.67;;;;;;;;5022334;28;8890;-78
2022/03/07 01:14:44;;;;;;;;;42.67;39.00;;;;;;;;5022450;28;8951;-78
2022/03/07 01:17:12;;;;;;;;;43.00;39.00;;;;;;;;5022913;28;8858;-78
2022/03/07 01:19:41;;;;;;;;;42.00;37.67;;;;;;;;5023372;28;9678;-80
2022/03/07 01:22:08;;;;;;;;;46.00;39.67;;;;;;;;5023891;28;9974;-78
2022/03/07 01:24:36;;;;;;;;;33.67;29.00;;;;;;;;5022447;28;8874;-79
2022/03/07 01:27:04;;;;;;;;;43.00;38.33;;;;;;;;5025850;28;8955;-79
2022/03/07 01:29:31;;;;;;;;;40.67;38.33;;;;;;;;5022328;28;9727;-79
2022/03/07 01:31:58;;;;;;;;;39.00;34.67;;;;;;;;5022745;28;8818;-79
2022/03/07 01:34:26;;;;;;;;;43.67;37.00;;;;;;;;4995177;28;8853;-79
2022/03/07 01:36:55;;;;;;;;;39.67;36.33;;;;;;;;5027574;28;8870;-79
2022/03/07 01:39:22;;;;;;;;;35.00;30.00;;;;;;;;5022475;28;8893;-79
2022/03/07 01:41:50;;;;;;;;;39.67;37.00;;;;;;;;5022202;28;8850;-79
2022/03/07 01:44:18;;;;;;;;;37.00;37.00;;;;;;;;5023404;28;8858;-79
2022/03/07 01:46:46;;;;;;;;;34.00;34.00;;;;;;;;5022223;28;9508;-78
2022/03/07 01:49:14;;;;;;;;;37.67;36.67;;;;;;;;5004748;28;8847;-79
2022/03/07 01:51:43;;;;;;;;;35.33;32.33;;;;;;;;5022350;28;8850;-79
2022/03/07 01:54:15;;;;;;;;;44.00;39.67;;;;;;;;5004323;28;10030;-78
2022/03/07 01:56:45;;;;;;;;;38.67;35.00;;;;;;;;5023295;28;8838;-79
2022/03/07 01:59:13;;;;;;;;;40.33;37.67;;;;;;;;5021895;28;8870;-78
2022/03/07 02:01:40;;;;;;;;;47.33;39.33;;;;;;;;5021708;28;8845;-78
2022/03/07 02:04:08;;;;;;;;;40.67;38.67;;;;;;;;5021612;28;8905;-79
2022/03/07 02:06:35;;;;;;;;;43.00;36.67;;;;;;;;5023724;28;9312;-78
2022/03/07 02:09:03;;;;;;;;;36.00;34.33;;;;;;;;5006606;28;9710;-78
2022/03/07 02:11:32;;;;;;;;;36.00;34.67;;;;;;;;5022480;28;8870;-79
2022/03/07 02:13:59;;;;;;;;;59.00;42.67;;;;;;;;5022231;28;9693;-79
2022/03/07 02:16:26;;;;;;;;;39.67;36.67;;;;;;;;5020737;28;8872;-78
2022/03/07 02:18:54;;;;;;;;;36.00;36.00;;;;;;;;5021888;28;8901;-78
2022/03/07 02:21:21;;;;;;;;;39.33;33.33;;;;;;;;5003037;28;8850;-78
2022/03/07 02:23:50;;;;;;;;;40.00;31.33;;;;;;;;5022227;28;8866;-79
2022/03/07 02:26:19;;;;;;;;;31.33;30.00;;;;;;;;5021340;28;9902;-79
2022/03/07 02:28:47;;;;;;;;;43.33;32.67;;;;;;;;5021678;28;8866;-78
2022/03/07 02:31:18;;;;;;;;;42.00;37.33;;;;;;;;5021764;28;8790;-79
2022/03/07 02:33:46;;;;;;;;;47.00;42.00;;;;;;;;5021518;28;8878;-78
2022/03/07 02:36:13;;;;;;;;;39.67;36.33;;;;;;;;5022447;28;8861;-78
2022/03/07 02:38:40;;;;;;;;;36.67;32.67;;;;;;;;5024183;28;8854;-79
2022/03/07 02:41:09;;;;;;;;;47.33;42.33;;;;;;;;5021966;28;8912;-79
2022/03/07 02:43:36;;;;;;;;;36.00;33.67;;;;;;;;5021092;28;8874;-79
2022/03/07 02:46:04;;;;;;;;;42.67;39.33;;;;;;;;5021704;28;8905;-79
2022/03/07 02:48:31;;;;;;;;;43.00;31.67;;;;;;;;5032714;28;8872;-79
2022/03/07 02:50:58;;;;;;;;;45.00;40.33;;;;;;;;5020579;28;8912;-78
2022/03/07 02:53:26;;;;;;;;;33.00;29.33;;;;;;;;5004460;28;8963;-79
2022/03/07 02:55:53;;;;;;;;;41.00;37.67;;;;;;;;5015170;28;8906;-79
2022/03/07 02:58:22;;;;;;;;;49.67;42.00;;;;;;;;5021599;28;8870;-79
2022/03/07 03:00:49;;;;;;;;;26.67;25.00;;;;;;;;5019846;28;8794;-79
2022/03/07 03:03:17;;;;;;;;;35.33;33.67;;;;;;;;5021521;28;8870;-79
2022/03/07 03:05:44;;;;;;;;;45.33;41.33;;;;;;;;5022020;28;8865;-78
2022/03/07 03:08:11;;;;;;;;;45.00;41.67;;;;;;;;5023624;28;8857;-78
2022/03/07 03:10:39;;;;;;;;;44.00;38.33;;;;;;;;5022088;28;8847;-79
2022/03/07 03:13:06;;;;;;;;;48.67;42.33;;;;;;;;5019895;28;8838;-79
2022/03/07 03:15:35;;;;;;;;;44.67;38.67;;;;;;;;5020877;28;8854;-79
2022/03/07 03:18:02;;;;;;;;;41.67;41.67;;;;;;;;5020279;28;8992;-79
2022/03/07 03:20:29;;;;;;;;;48.67;42.00;;;;;;;;5015713;28;8996;-79
2022/03/07 03:22:57;;;;;;;;;39.00;36.67;;;;;;;;5003480;28;8866;-78
2022/03/07 03:25:24;;;;;;;;;42.00;38.67;;;;;;;;5017512;28;8858;-78
2022/03/07 03:27:51;;;;;;;;;46.67;42.00;;;;;;;;5037796;28;8876;-79
2022/03/07 03:30:19;;;;;;;;;47.67;44.00;;;;;;;;5035482;28;8879;-80
2022/03/07 03:32:48;;;;;;;;;34.67;31.00;;;;;;;;5021479;28;8866;-79
2022/03/07 03:35:15;;;;;;;;;41.33;40.67;;;;;;;;5020476;28;8897;-79
2022/03/07 03:37:43;;;;;;;;;28.67;28.67;;;;;;;;5004021;28;8976;-80
2022/03/07 03:40:12;;;;;;;;;47.67;42.33;;;;;;;;5019658;28;8878;-78
2022/03/07 03:42:40;;;;;;;;;44.67;38.33;;;;;;;;5020864;28;8858;-79
2022/03/07 03:45:09;;;;;;;;;48.33;42.33;;;;;;;;5021033;28;8846;-78
2022/03/07 03:47:37;;;;;;;;;42.00;38.33;;;;;;;;5018613;28;8905;-78
2022/03/07 03:50:09;;;;;;;;;45.00;42.00;;;;;;;;5015506;28;8890;-79
2022/03/07 03:52:36;;;;;;;;;42.33;40.33;;;;;;;;5020152;28;8869;-78
2022/03/07 03:55:04;;;;;;;;;38.67;37.67;;;;;;;;5021638;28;8858;-78
2022/03/07 03:57:32;;;;;;;;;39.67;36.67;;;;;;;;5019247;28;8858;-79
2022/03/07 04:00:00;;;;;;;;;41.33;40.33;;;;;;;;5018747;28;8862;-79
2022/03/07 04:02:27;;;;;;;;;44.67;41.67;;;;;;;;5019766;28;8819;-78
2022/03/07 04:04:55;;;;;;;;;41.33;38.33;;;;;;;;5019065;28;8870;-79
2022/03/07 04:07:23;;;;;;;;;44.67;40.67;;;;;;;;5020980;28;8842;-79
2022/03/07 04:09:51;;;;;;;;;38.00;32.00;;;;;;;;5020608;28;9761;-79
2022/03/07 04:12:18;;;;;;;;;44.67;37.67;;;;;;;;5003859;28;8947;-79
2022/03/07 04:14:45;;;;;;;;;39.67;36.67;;;;;;;;5019133;28;8874;-79
2022/03/07 04:17:12;;;;;;;;;53.33;41.67;;;;;;;;5020311;28;8864;-79
2022/03/07 04:19:40;;;;;;;;;47.67;35.33;;;;;;;;5019875;28;8862;-79
2022/03/07 04:22:08;;;;;;;;;47.33;40.33;;;;;;;;5003443;28;8876;-78
2022/03/07 04:24:37;;;;;;;;;28.67;28.67;;;;;;;;5036059;28;9745;-78
2022/03/07 04:27:05;;;;;;;;;38.33;38.00;;;;;;;;5020304;28;8947;-79
2022/03/07 04:29:32;;;;;;;;;44.00;41.00;;;;;;;;5020376;28;9631;-79
2022/03/07 04:32:00;;;;;;;;;41.67;41.67;;;;;;;;5018154;28;9880;-78
2022/03/07 04:34:27;;;;;;;;;44.33;42.33;;;;;;;;5028689;28;8872;-78
2022/03/07 04:36:55;;;;;;;;;37.33;37.33;;;;;;;;5023840;28;8886;-79
2022/03/07 04:39:23;;;;;;;;;41.33;41.00;;;;;;;;5019624;28;8890;-80
2022/03/07 04:41:52;;;;;;;;;44.67;38.33;;;;;;;;5020127;28;8985;-79
2022/03/07 04:44:20;;;;;;;;;44.67;41.33;;;;;;;;5001816;28;8901;-78
2022/03/07 04:46:47;;;;;;;;;43.33;40.00;;;;;;;;5004806;28;8878;-79
2022/03/07 04:49:14;;;;;;;;;46.33;44.00;;;;;;;;5015924;28;8911;-80
2022/03/07 04:51:45;;;;;;;;;35.33;35.33;;;;;;;;5019917;28;8883;-80
2022/03/07 04:54:13;;;;;;;;;41.33;41.33;;;;;;;;5003831;28;8878;-79
2022/03/07 04:56:43;;;;;;;;;36.67;36.67;;;;;;;;5020121;28;9700;-78
2022/03/07 04:59:13;;;;;;;;;47.00;44.33;;;;;;;;5020032;28;8934;-78
2022/03/07 05:01:41;;;;;;;;;41.67;41.00;;;;;;;;5017434;28;8856;-78
2022/03/07 05:04:08;;;;;;;;;44.00;43.00;;;;;;;;5019271;28;8877;-78
2022/03/07 05:06:35;;;;;;;;;43.00;43.00;;;;;;;;5013859;28;8911;-80
2022/03/07 05:09:03;;;;;;;;;47.00;44.67;;;;;;;;5019630;28;8869;-78
2022/03/07 05:11:31;;;;;;;;;46.33;43.33;;;;;;;;5024551;28;9075;-83
2022/03/07 05:13:58;;;;;;;;;49.00;46.00;;;;;;;;5021710;28;8908;-79
2022/03/07 05:16:27;;;;;;;;;40.33;40.33;;;;;;;;5021150;28;8868;-79
2022/03/07 05:18:55;;;;;;;;;37.33;35.67;;;;;;;;5019684;28;8885;-79
2022/03/07 05:21:22;;;;;;;;;37.67;37.67;;;;;;;;5019545;28;8955;-78
2022/03/07 05:23:50;;;;;;;;;39.00;38.00;;;;;;;;5017673;28;8889;-79
2022/03/07 05:26:17;;;;;;;;;43.33;41.00;;;;;;;;5034279;28;8919;-80
2022/03/07 05:28:44;;;;;;;;;46.67;43.00;;;;;;;;5018727;28;8897;-81
2022/03/07 05:31:13;;;;;;;;;43.00;40.00;;;;;;;;5019040;28;8829;-75
2022/03/07 05:33:42;;;;;;;;;35.00;35.00;;;;;;;;5018237;28;8876;-79
2022/03/07 05:36:10;;;;;;;;;51.00;45.33;;;;;;;;5018419;28;8869;-80
2022/03/07 05:38:37;;;;;;;;;39.67;39.67;;;;;;;;5019353;28;8865;-79
2022/03/07 05:41:05;;;;;;;;;43.33;43.33;;;;;;;;5018407;28;8865;-79
2022/03/07 05:43:32;;;;;;;;;40.67;40.67;;;;;;;;4997642;28;9642;-76
2022/03/07 05:46:00;;;;;;;;;37.00;35.33;;;;;;;;5018553;28;8874;-77
2022/03/07 05:48:28;;;;;;;;;38.33;36.67;;;;;;;;5027015;28;8985;-77
2022/03/07 05:50:57;;;;;;;;;51.00;47.25;;;;;;;;5027589;28;8882;-78
2022/03/07 05:53:24;;;;;;;;;47.00;45.50;;;;;;;;5028025;28;8896;-76
2022/03/07 05:55:52;;;;;;;;;46.75;44.75;;;;;;;;5025521;28;9625;-77
2022/03/07 05:58:20;;;;;;;;;48.00;45.75;;;;;;;;5024536;28;8900;-83
2022/03/07 06:00:49;;;;;;;;;51.75;44.00;;;;;;;;5024884;28;8808;-80
2022/03/07 06:03:16;;;;;;;;;52.00;48.75;;;;;;;;5022346;28;8864;-77
2022/03/07 06:05:46;;;;;;;;;49.00;46.75;;;;;;;;5023859;28;8915;-78
2022/03/07 06:08:15;;;;;;;;;55.75;48.50;;;;;;;;5009670;28;8944;-77
2022/03/07 06:10:42;;;;;;;;;57.00;49.00;;;;;;;;5025578;28;8862;-80
2022/03/07 06:13:10;;;;;;;;;42.00;41.75;;;;;;;;5025641;28;8894;-75
2022/03/07 06:15:43;;;;;;;;;46.00;44.00;;;;;;;;5024574;28;8880;-79
2022/03/07 06:18:11;;;;;;;;;49.25;45.25;;;;;;;;5021505;28;8911;-88
2022/03/07 06:20:38;;;;;;;;;48.75;44.50;;;;;;;;5021180;28;8887;-82
2022/03/07 06:23:05;;;;;;;;;48.00;44.00;;;;;;;;5021339;28;8894;-84
2022/03/07 06:25:35;;;;;;;;;49.50;46.50;;;;;;;;5015520;28;8885;-80
2022/03/07 06:28:02;;;;;;;;;54.50;48.00;;;;;;;;5020374;28;8903;-77
2022/03/07 06:30:31;;;;;;;;;53.75;47.75;;;;;;;;5021275;28;8794;-80
2022/03/07 06:32:58;;;;;;;;;40.50;40.50;;;;;;;;5021021;28;8909;-78
2022/03/07 06:35:25;;;;;;;;;40.50;39.00;;;;;;;;5031475;28;8866;-83
2022/03/07 06:37:54;;;;;;;;;53.25;47.00;;;;;;;;5020937;28;8907;-83
2022/03/07 06:40:23;;;;;;;;;48.25;39.25;;;;;;;;5020133;28;8877;-81
2022/03/07 06:42:52;;;;;;;;;54.75;48.25;;;;;;;;5022139;28;8872;-83
2022/03/07 06:45:19;;;;;;;;;48.50;46.25;;;;;;;;5014150;28;8992;-83
2022/03/07 06:47:48;;;;;;;;;49.00;46.50;;;;;;;;5001889;28;8885;-83
2022/03/07 06:50:16;;;;;;;;;42.00;40.00;;;;;;;;5001771;28;8881;-82
2022/03/07 06:52:43;;;;;;;;;52.25;48.50;;;;;;;;5009637;28;8870;-82
2022/03/07 06:55:12;;;;;;;;;47.75;46.50;;;;;;;;5008962;28;8893;-83
2022/03/07 06:57:39;;;;;;;;;46.75;44.75;;;;;;;;5007034;28;8925;-83
2022/03/07 07:00:11;;;;;;;;;49.50;46.00;;;;;;;;5001231;28;8936;-81
2022/03/07 07:02:39;;;;;;;;;46.25;43.25;;;;;;;;4986167;28;9015;-82
2022/03/07 07:05:08;;;;;;;;;52.75;48.50;;;;;;;;5009516;28;8881;-81
2022/03/07 07:07:35;;;;;;;;;26.25;24.75;;;;;;;;5002085;28;8909;-82
2022/03/07 07:10:04;;;;;;;;;34.50;32.50;;;;;;;;5003505;28;8877;-80
2022/03/07 07:12:32;;;;;;;;;47.25;45.50;;;;;;;;4985929;28;9746;-80
2022/03/07 07:14:59;;;;;;;;;58.75;51.00;;;;;;;;5006109;28;8881;-74
2022/03/07 07:17:28;;;;;;;;;48.00;46.25;;;;;;;;4997657;28;9969;-72
2022/03/07 07:19:56;;;;;;;;;45.75;43.25;;;;;;;;5004664;28;9000;-74
2022/03/07 07:22:23;;;;;;;;;47.00;43.50;;;;;;;;5001119;28;8877;-74
2022/03/07 07:24:50;;;;;;;;;52.25;46.75;;;;;;;;5014062;28;8934;-73
2022/03/07 07:27:18;;;;;;;;;48.25;45.25;;;;;;;;5000771;28;8984;-74
2022/03/07 07:29:45;;;;;;;;;58.50;50.25;;;;;;;;4983390;28;8924;-74
2022/03/07 07:32:13;;;;;;;;;41.00;40.50;;;;;;;;5001059;28;8830;-74
2022/03/07 07:34:42;;;;;;;;;51.00;46.50;;;;;;;;4984564;28;8887;-73
2022/03/07 07:37:09;;;;;;;;;57.25;49.00;;;;;;;;5000705;28;8869;-74
2022/03/07 07:39:37;;;;;;;;;45.25;44.50;;;;;;;;4996658;28;9642;-73
2022/03/07 07:42:05;;;;;;;;;41.33;40.67;;;;;;;;5011074;28;8911;-74
2022/03/07 07:44:32;;;;;;;;;43.67;43.33;;;;;;;;5014226;28;8871;-73
2022/03/07 07:46:59;;;;;;;;;55.25;49.25;;;;;;;;4992607;28;8889;-73
2022/03/07 07:49:27;;;;;;;;;55.00;50.00;;;;;;;;5021409;28;8980;-74
2022/03/07 07:51:55;;;;;;;;;54.33;46.67;;;;;;;;5020138;28;8856;-75
2022/03/07 07:54:23;;;;;;;;;46.33;42.67;;;;;;;;5020580;28;8900;-75
2022/03/07 07:56:50;;;;;;;;;46.33;45.00;;;;;;;;5016871;28;8882;-75
2022/03/07 07:59:18;;;;;;;;;51.67;45.67;;;;;;;;5020580;28;8920;-75
2022/03/07 08:01:45;;;;;;;;;50.33;46.33;;;;;;;;5021800;28;8790;-75
2022/03/07 08:04:13;;;;;;;;;44.00;42.33;;;;;;;;5022121;28;8886;-74
2022/03/07 08:06:40;;;;;;;;;49.00;45.67;;;;;;;;5033465;28;8840;-75
2022/03/07 08:09:09;;;;;;;;;48.00;45.33;;;;;;;;5028998;28;8862;-76
2022/03/07 08:11:36;;;;;;;;;44.00;43.00;;;;;;;;5021522;28;8866;-75
2022/03/07 08:14:04;;;;;;;;;46.00;44.33;;;;;;;;5011248;28;8882;-75
2022/03/07 08:16:31;;;;;;;;;54.00;47.33;;;;;;;;5029529;28;8904;-75
2022/03/07 08:18:59;;;;;;;;;47.33;43.67;;;;;;;;5002363;28;8876;-75
2022/03/07 08:21:27;;;;;;;;;52.33;44.67;;;;;;;;5021061;28;8876;-74
2022/03/07 08:23:55;;;;;;;;;43.33;38.33;;;;;;;;5020821;28;8822;-74
2022/03/07 08:26:24;;;;;;;;;46.33;40.33;;;;;;;;5027639;28;8862;-75
2022/03/07 08:28:51;;;;;;;;;56.33;45.67;;;;;;;;5004053;28;8890;-75
2022/03/07 08:31:18;;;;;;;;;46.67;43.67;;;;;;;;5019432;28;8786;-74
2022/03/07 08:33:46;;;;;;;;;46.00;42.00;;;;;;;;5023087;28;9371;-74
2022/03/07 08:36:13;;;;;;;;;41.67;38.67;;;;;;;;5020324;28;9636;-74
2022/03/07 08:38:40;;;;;;;;;49.00;41.00;;;;;;;;5032963;28;8867;-74
2022/03/07 08:41:08;;;;;;;;;48.67;43.33;;;;;;;;5021274;28;9620;-74
2022/03/07 08:43:37;;;;;;;;;38.33;38.33;;;;;;;;5026587;28;8862;-74
2022/03/07 08:46:04;;;;;;;;;37.33;34.67;;;;;;;;5021410;28;8880;-73
2022/03/07 08:48:31;;;;;;;;;47.67;44.67;;;;;;;;5028220;28;9913;-74
2022/03/07 08:50:58;;;;;;;;;50.00;41.33;;;;;;;;5027689;28;8852;-74
2022/03/07 08:53:26;;;;;;;;;35.00;34.00;;;;;;;;5004021;28;8866;-75
2022/03/07 08:55:53;;;;;;;;;51.00;40.67;;;;;;;;5027393;28;8873;-74
2022/03/07 08:58:21;;;;;;;;;35.00;33.00;;;;;;;;5005855;28;8866;-74
2022/03/07 09:00:49;;;;;;;;;42.00;37.33;;;;;;;;5020242;28;8868;-75
2022/03/07 09:03:17;;;;;;;;;37.00;34.33;;;;;;;;5020521;28;8887;-75
2022/03/07 09:05:44;;;;;;;;;41.33;41.00;;;;;;;;5020320;28;8882;-75
2022/03/07 09:08:12;;;;;;;;;44.33;39.00;;;;;;;;5020924;28;9000;-72
2022/03/07 09:10:39;;;;;;;;;43.00;38.00;;;;;;;;5022558;28;8981;-74
2022/03/07 09:13:06;;;;;;;;;33.00;32.00;;;;;;;;5019838;28;8869;-72
2022/03/07 09:15:33;;;;;;;;;36.67;36.67;;;;;;;;5023160;28;8865;-74
2022/03/07 09:18:03;;;;;;;;;48.67;36.33;;;;;;;;5018701;28;8916;-74
2022/03/07 09:20:30;;;;;;;;;38.00;35.33;;;;;;;;5029048;28;8891;-76
2022/03/07 09:22:58;;;;;;;;;42.00;35.33;;;;;;;;5028777;28;8858;-73
2022/03/07 09:25:25;;;;;;;;;28.00;27.00;;;;;;;;5026096;28;8896;-75
2022/03/07 09:27:52;;;;;;;;;34.67;33.00;;;;;;;;5022558;28;11529;-74
2022/03/07 09:30:19;;;;;;;;;36.67;31.67;;;;;;;;5023434;28;8874;-74
2022/03/07 09:32:47;;;;;;;;;38.33;36.33;;;;;;;;5020487;28;11508;-75
2022/03/07 09:35:16;;;;;;;;;42.67;35.33;;;;;;;;5023471;28;11589;-75
2022/03/07 09:37:43;;;;;;;;;38.67;34.33;;;;;;;;5022711;28;11517;-76
2022/03/07 09:40:13;;;;;;;;;26.67;26.67;;;;;;;;5021797;28;11596;-76
2022/03/07 09:42:40;;;;;;;;;32.00;29.33;;;;;;;;5023778;28;9049;-75
2022/03/07 09:45:09;;;;;;;;;41.33;37.00;;;;;;;;5021412;28;11517;-76
2022/03/07 09:47:38;;;;;;;;;34.25;31.00;;;;;;;;5023008;28;11517;-76
2022/03/07 09:50:08;;;;;;;;;38.50;31.25;;;;;;;;5021577;28;11531;-76
2022/03/07 09:52:37;;;;;;;;;36.25;30.00;;;;;;;;5032584;28;11648;-77
2022/03/07 09:55:07;;;;;;;;;29.75;25.50;;;;;;;;5022249;28;11504;-76
2022/03/07 09:57:35;;;;;;;;;37.00;33.00;;;;;;;;5020828;28;11493;-77
2022/03/07 10:00:02;;;;;;;;;33.00;30.00;;;;;;;;5024814;28;11530;-76
2022/03/07 10:02:30;;;;;;;;;28.00;28.00;;;;;;;;5031272;28;12357;-79
2022/03/07 10:05:01;;;;;;;;;33.50;33.50;;;;;;;;5023046;28;11529;-79
2022/03/07 10:07:28;;;;;;;;;37.25;35.25;;;;;;;;5023610;28;11617;-76
2022/03/07 10:10:05;;;;;;;;;39.00;32.50;;;;;;;;5030391;28;11542;-77
2022/03/07 10:12:33;;;;;;;;;35.25;29.25;;;;;;;;5022189;28;11537;-78
2022/03/07 10:15:12;;;;;;;;;25.25;23.50;;;;;;;;5020733;28;11629;-78
2022/03/07 10:17:41;;;;;;;;;33.00;29.00;;;;;;;;5027907;28;11540;-79
2022/03/07 10:20:10;;;;;;;;;39.00;29.50;;;;;;;;5022184;28;11572;-72
2022/03/07 10:22:45;;;;;;;;;31.00;31.00;;;;;;;;5006620;28;11501;-74
2022/03/07 10:25:14;;;;;;;;;33.50;28.25;;;;;;;;5010776;28;11516;-74
2022/03/07 10:27:44;;;;;;;;;31.75;29.75;;;;;;;;5022454;28;11630;-75
2022/03/07 10:30:15;;;;;;;;;26.00;26.00;;;;;;;;5004559;28;11514;-76
2022/03/07 10:32:44;;;;;;;;;40.50;36.50;;;;;;;;5022274;28;11506;-76
2022/03/07 10:35:23;;;;;;;;;30.75;30.75;;;;;;;;5022989;28;11527;-75
2022/03/07 10:37:50;;;;;;;;;30.00;28.75;;;;;;;;5025948;28;11578;-75
2022/03/07 10:40:23;;;;;;;;;28.75;28.75;;;;;;;;5026744;28;11577;-78
2022/03/07 10:42:52;;;;;;;;;30.00;24.75;;;;;;;;5023202;28;11533;-74
2022/03/07 10:45:20;;;;;;;;;32.50;27.25;;;;;;;;5022689;28;11561;-77
2022/03/07 10:47:52;;;;;;;;;33.50;28.50;;;;;;;;5022219;28;11560;-76
2022/03/07 10:50:22;;;;;;;;;28.75;28.75;;;;;;;;5029992;28;11513;-78
2022/03/07 10:52:51;;;;;;;;;34.50;31.00;;;;;;;;5019076;28;12410;-76
2022/03/07 10:55:25;;;;;;;;;36.75;32.75;;;;;;;;5021437;28;11591;-75
2022/03/07 10:57:53;;;;;;;;;35.50;30.50;;;;;;;;5028650;28;11531;-74
2022/03/07 11:00:22;;;;;;;;;25.75;25.75;;;;;;;;5032537;28;12290;-74
2022/03/07 11:02:50;;;;;;;;;26.25;21.00;;;;;;;;5023435;28;11555;-75
2022/03/07 11:05:18;;;;;;;;;26.50;26.50;;;;;;;;5004662;28;11540;-75
2022/03/07 11:07:49;;;;;;;;;25.75;25.75;;;;;;;;5025929;28;11556;-74
2022/03/07 11:10:17;;;;;;;;;30.75;30.00;;;;;;;;5022461;28;11547;-76
2022/03/07 11:12:47;;;;;;;;;29.75;28.00;;;;;;;;4987543;28;11627;-74
2022/03/07 11:15:18;;;;;;;;;28.75;26.75;;;;;;;;5029357;28;11543;-74
2022/03/07 11:17:47;;;;;;;;;29.25;27.50;;;;;;;;5023255;28;11552;-73
2022/03/07 11:20:17;;;;;;;;;30.50;27.25;;;;;;;;5026080;28;11521;-73
2022/03/07 11:22:45;;;;;;;;;29.75;27.00;;;;;;;;5024604;28;11534;-75
2022/03/07 11:25:15;;;;;;;;;35.75;32.50;;;;;;;;5023685;28;11577;-75
2022/03/07 11:27:43;;;;;;;;;26.25;25.25;;;;;;;;5025299;28;12338;-74
2022/03/07 11:30:16;;;;;;;;;37.75;34.75;;;;;;;;5023287;28;11517;-75
2022/03/07 11:32:44;;;;;;;;;26.75;26.25;;;;;;;;5021555;28;11513;-75
2022/03/07 11:35:11;;;;;;;;;26.75;25.75;;;;;;;;5018863;28;11610;-75
2022/03/07 11:37:39;;;;;;;;;29.25;27.25;;;;;;;;5018916;28;11530;-74
2022/03/07 11:40:19;;;;;;;;;24.50;24.50;;;;;;;;5020954;28;11587;-75
2022/03/07 11:42:46;;;;;;;;;34.75;31.50;;;;;;;;5019901;28;11647;-75
2022/03/07 11:45:18;;;;;;;;;37.75;31.25;;;;;;;;5020533;28;11514;-77
2022/03/07 11:47:47;;;;;;;;;36.50;32.00;;;;;;;;5017841;28;11539;-76
2022/03/07 11:50:18;;;;;;;;;32.75;32.50;;;;;;;;5017914;28;11593;-75
2022/03/07 11:52:46;;;;;;;;;25.00;24.25;;;;;;;;5020789;28;11510;-74
2022/03/07 11:55:16;;;;;;;;;29.75;20.75;;;;;;;;5019082;28;11664;-73
2022/03/07 11:57:44;;;;;;;;;29.75;28.00;;;;;;;;5022027;28;12404;-74
2022/03/07 12:00:26;;;;;;;;;27.25;27.00;;;;;;;;5018887;28;12250;-73
2022/03/07 12:02:58;;;;;;;;;22.75;21.25;;;;;;;;5013405;28;12345;-74
2022/03/07 12:05:28;;;;;;;;;41.50;34.25;;;;;;;;5020567;28;11530;-73
2022/03/07 12:08:08;;;;;;;;;33.00;27.75;;;;;;;;5020617;28;11624;-73
2022/03/07 12:10:38;;;;;;;;;29.50;28.50;;;;;;;;5027482;28;11528;-73
2022/03/07 12:13:07;;;;;;;;;34.00;30.75;;;;;;;;5019156;28;11528;-74
2022/03/07 12:15:45;;;;;;;;;31.75;27.00;;;;;;;;5023589;28;11560;-73
2022/03/07 12:18:13;;;;;;;;;33.00;29.00;;;;;;;;5019236;28;11534;-73
2022/03/07 12:20:52;;;;;;;;;37.25;29.75;;;;;;;;5024586;28;11522;-76
2022/03/07 12:23:21;;;;;;;;;29.75;28.50;;;;;;;;5019857;28;12267;-74
2022/03/07 12:25:48;;;;;;;;;34.50;30.00;;;;;;;;5021178;28;11638;-72
2022/03/07 12:28:16;;;;;;;;;35.00;31.00;;;;;;;;5019053;28;11953;-72
2022/03/07 12:30:45;;;;;;;;;28.50;28.50;;;;;;;;5025179;28;11452;-77
2022/03/07 12:33:13;;;;;;;;;28.50;26.25;;;;;;;;5022054;28;11566;-74
2022/03/07 12:35:40;;;;;;;;;36.50;29.50;;;;;;;;5020075;28;11446;-72
2022/03/07 12:38:08;;;;;;;;;37.25;33.75;;;;;;;;5021372;28;11466;-74
2022/03/07 12:40:37;;;;;;;;;29.75;27.00;;;;;;;;5022544;28;11466;-71
2022/03/07 12:43:05;;;;;;;;;44.00;37.75;;;;;;;;5013815;28;11517;-75
2022/03/07 12:45:33;;;;;;;;;36.75;35.25;;;;;;;;5020710;28;12370;-75
2022/03/07 12:48:02;;;;;;;;;34.00;30.00;;;;;;;;5024504;28;11506;-76
2022/03/07 12:50:32;;;;;;;;;34.00;29.00;;;;;;;;5020439;28;11584;-75
2022/03/07 12:52:59;;;;;;;;;32.50;29.25;;;;;;;;5022897;28;12289;-73
2022/03/07 12:55:27;;;;;;;;;29.25;26.75;;;;;;;;5024445;28;11634;-72
2022/03/07 12:57:57;;;;;;;;;34.25;32.00;;;;;;;;5032314;28;11496;-75
2022/03/07 13:00:25;;;;;;;;;26.75;26.25;;;;;;;;5022755;28;11405;-76
2022/03/07 13:02:54;;;;;;;;;32.25;27.75;;;;;;;;5027137;28;11550;-75
2022/03/07 13:05:24;;;;;;;;;33.75;30.25;;;;;;;;5022012;28;11484;-79
2022/03/07 13:07:55;;;;;;;;;34.25;32.00;;;;;;;;5032596;28;11464;-75
2022/03/07 13:10:23;;;;;;;;;37.50;34.75;;;;;;;;5005732;28;11453;-76
2022/03/07 13:12:54;;;;;;;;;29.00;26.50;;;;;;;;5006427;28;11463;-73
2022/03/07 13:15:22;;;;;;;;;29.75;27.00;;;;;;;;5018481;28;11472;-73
2022/03/07 13:18:02;;;;;;;;;33.25;28.50;;;;;;;;5032594;28;11462;-73
2022/03/07 13:20:31;;;;;;;;;35.75;35.75;;;;;;;;5022802;28;11479;-73
2022/03/07 13:23:00;;;;;;;;;34.25;26.50;;;;;;;;5025094;28;11483;-74
2022/03/07 13:25:28;;;;;;;;;26.00;25.75;;;;;;;;5023918;28;11481;-73
2022/03/07 13:27:55;;;;;;;;;32.50;29.75;;;;;;;;5024979;28;11457;-75
2022/03/07 13:30:23;;;;;;;;;45.25;36.25;;;;;;;;5027911;28;11489;-74
2022/03/07 13:32:51;;;;;;;;;40.50;35.00;;;;;;;;5024365;28;11468;-75
2022/03/07 13:35:27;;;;;;;;;27.25;23.75;;;;;;;;5023468;28;11484;-74
2022/03/07 13:37:57;;;;;;;;;26.25;26.25;;;;;;;;5034950;28;11473;-76
2022/03/07 13:40:27;;;;;;;;;33.00;29.50;;;;;;;;5023029;28;11645;-75
2022/03/07 13:42:55;;;;;;;;;18.00;18.00;;;;;;;;5025087;28;11499;-75
2022/03/07 13:45:25;;;;;;;;;32.50;31.50;;;;;;;;5020525;28;11665;-74
2022/03/07 13:47:56;;;;;;;;;29.50;29.00;;;;;;;;5002901;28;12300;-74
2022/03/07 13:50:25;;;;;;;;;27.25;21.00;;;;;;;;5024128;28;11578;-75
2022/03/07 13:53:04;;;;;;;;;32.00;27.00;;;;;;;;5022992;28;11445;-75
2022/03/07 13:55:35;;;;;;;;;29.75;24.50;;;;;;;;5029413;28;11510;-74
2022/03/07 13:58:04;;;;;;;;;28.75;26.75;;;;;;;;5030060;28;11469;-75
2022/03/07 14:00:31;;;;;;;;;31.00;25.00;;;;;;;;5018720;28;11434;-76
2022/03/07 14:03:04;;;;;;;;;28.50;25.00;;;;;;;;5022790;28;11510;-74
2022/03/07 14:05:41;;;;;;;;;29.75;29.50;;;;;;;;5021129;28;11495;-77
2022/03/07 14:08:10;;;;;;;;;28.25;27.75;;;;;;;;5022699;28;12312;-76
2022/03/07 14:10:37;;;;;;;;;23.50;21.50;;;;;;;;5022438;28;12923;-75
2022/03/07 14:13:04;;;;;;;;;32.25;31.00;;;;;;;;5024855;28;11466;-76
2022/03/07 14:15:33;;;;;;;;;26.00;26.00;;;;;;;;5025516;28;11511;-74
2022/03/07 14:18:02;;;;;;;;;27.00;23.75;;;;;;;;5009431;28;11458;-75
2022/03/07 14:20:29;;;;;;;;;23.00;21.00;;;;;;;;5023537;28;11459;-75
2022/03/07 14:22:57;;;;;;;;;27.75;25.50;;;;;;;;5011138;28;11533;-75
2022/03/07 14:25:27;;;;;;;;;22.50;20.75;;;;;;;;5023748;28;11530;-74
2022/03/07 14:27:56;;;;;;;;;14.25;14.25;;;;;;;;5020552;28;11464;-77
2022/03/07 14:30:24;;;;;;;;;30.75;27.00;;;;;;;;5026563;28;11459;-79
2022/03/07 14:32:51;;;;;;;;;29.75;24.75;;;;;;;;5021811;28;11474;-76